createdAt,value
2018-12-22T00:00:38.149Z,0.80
2018-12-22T00:03:07.066Z,0.90
2018-12-22T00:05:36.191Z,0.80
2018-12-22T00:08:11.442Z,0.90
2018-12-22T00:10:41.947Z,0.80
2018-12-22T00:13:10.576Z,1.75
2018-12-22T00:15:39.173Z,0.60
2018-12-22T00:18:08.196Z,0.70
2018-12-22T00:20:39.956Z,0.60
2018-12-22T00:23:10.487Z,0.80
2018-12-22T00:25:39.863Z,1.47
2018-12-22T00:28:08.233Z,0.70
2018-12-22T00:30:36.915Z,1.63
2018-12-22T00:33:06.216Z,1.70
2018-12-22T00:35:34.626Z,0.80
2018-12-22T00:38:03.196Z,0.90
2018-12-22T00:40:31.925Z,0.80
2018-12-22T00:43:00.771Z,1.77
2018-12-22T00:45:29.206Z,1.00
2018-12-22T00:47:57.851Z,3.03
2018-12-22T00:50:26.553Z,2.33
2018-12-22T00:52:56.223Z,0.70
2018-12-22T00:55:24.619Z,1.53
2018-12-22T00:57:53.118Z,1.70
2018-12-22T01:00:21.881Z,0.60
2018-12-22T01:02:51.200Z,0.70
2018-12-22T01:05:19.890Z,3.12
2018-12-22T01:07:48.457Z,0.70
2018-12-22T01:10:16.846Z,0.70
2018-12-22T01:12:45.369Z,1.07
2018-12-22T01:15:14.266Z,0.60
2018-12-22T01:17:42.766Z,0.60
2018-12-22T01:20:12.150Z,0.70
2018-12-22T01:22:40.744Z,0.60
2018-12-22T01:25:09.830Z,0.80
2018-12-22T01:27:38.299Z,1.05
2018-12-22T01:30:07.816Z,2.75
2018-12-22T01:32:36.472Z,0.70
2018-12-22T01:35:05.884Z,2.80
2018-12-22T01:37:34.749Z,1.90
2018-12-22T01:40:03.153Z,2.27
2018-12-22T01:42:31.611Z,0.80
2018-12-22T01:45:00.002Z,1.07
2018-12-22T01:47:28.329Z,1.00
2018-12-22T01:49:56.792Z,1.00
2018-12-22T01:52:25.290Z,1.22
2018-12-22T01:54:53.568Z,0.80
2018-12-22T01:57:21.850Z,0.70
2018-12-22T01:59:50.252Z,1.27
2018-12-22T02:02:18.532Z,2.22
2018-12-22T02:04:47.770Z,0.70
2018-12-22T02:07:16.659Z,0.80
2018-12-22T02:09:45.451Z,0.80
2018-12-22T02:12:14.306Z,2.50
2018-12-22T02:14:43.072Z,1.70
2018-12-22T02:17:12.145Z,1.70
2018-12-22T02:19:41.421Z,0.70
2018-12-22T02:22:10.508Z,2.00
2018-12-22T02:24:39.440Z,0.90
2018-12-22T02:27:08.268Z,0.70
2018-12-22T02:29:37.166Z,0.70
2018-12-22T02:32:06.159Z,2.55
2018-12-22T02:34:35.344Z,0.60
2018-12-22T02:37:04.180Z,0.60
2018-12-22T02:39:32.793Z,0.60
2018-12-22T02:42:01.154Z,2.75
2018-12-22T02:44:29.525Z,0.70
2018-12-22T02:46:57.812Z,2.15
2018-12-22T02:49:26.219Z,0.75
2018-12-22T02:51:54.616Z,1.10
2018-12-22T02:54:23.068Z,1.52
2018-12-22T02:56:51.437Z,1.05
2018-12-22T02:59:19.840Z,0.88
2018-12-22T03:01:48.353Z,1.10
2018-12-22T03:04:16.658Z,2.02
2018-12-22T03:06:45.237Z,0.80
2018-12-22T03:09:13.660Z,0.60
2018-12-22T03:11:41.898Z,1.12
2018-12-22T03:14:10.838Z,3.25
2018-12-22T03:16:39.248Z,6.50
2018-12-22T03:19:07.541Z,0.90
2018-12-22T03:21:35.871Z,0.60
2018-12-22T03:24:04.298Z,0.68
2018-12-22T03:26:32.602Z,0.75
2018-12-22T03:29:01.061Z,4.55
2018-12-22T03:31:29.349Z,0.70
2018-12-22T03:33:57.738Z,0.60
2018-12-22T03:36:26.098Z,0.80
2018-12-22T03:38:54.578Z,2.02
2018-12-22T03:41:22.890Z,2.25
2018-12-22T03:43:51.370Z,1.42
2018-12-22T03:46:19.682Z,2.08
2018-12-22T03:48:48.029Z,4.30
2018-12-22T03:51:16.486Z,0.60
2018-12-22T03:53:45.185Z,0.95
2018-12-22T03:56:13.747Z,1.55
2018-12-22T03:58:42.617Z,0.93
2018-12-22T04:01:11.783Z,1.35
2018-12-22T04:03:40.600Z,2.75
2018-12-22T04:06:09.665Z,6.05
2018-12-22T04:08:38.427Z,1.20
2018-12-22T04:11:08.191Z,0.70
2018-12-22T04:13:36.911Z,1.40
2018-12-22T04:16:05.512Z,1.90
2018-12-22T04:18:33.876Z,3.20
2018-12-22T04:21:03.295Z,1.80
2018-12-22T04:23:31.890Z,5.20
2018-12-22T04:26:00.352Z,1.42
2018-12-22T04:28:28.866Z,0.50
2018-12-22T04:30:57.228Z,0.60
2018-12-22T04:33:25.470Z,0.60
2018-12-22T04:35:53.851Z,0.55
2018-12-22T04:38:22.190Z,0.60
2018-12-22T04:40:50.691Z,0.60
2018-12-22T04:43:19.299Z,0.50
2018-12-22T04:45:47.751Z,0.78
2018-12-22T04:48:16.902Z,1.98
2018-12-22T04:50:45.353Z,1.35
2018-12-22T04:53:13.869Z,0.70
2018-12-22T04:55:42.336Z,0.60
2018-12-22T04:58:11.427Z,0.70
2018-12-22T05:00:40.094Z,1.15
2018-12-22T05:03:08.388Z,0.50
2018-12-22T05:05:36.834Z,0.75
2018-12-22T05:08:05.150Z,0.60
2018-12-22T05:10:33.465Z,0.60
2018-12-22T05:13:01.919Z,0.60
2018-12-22T05:15:30.345Z,1.45
2018-12-22T05:17:58.888Z,0.60
2018-12-22T05:20:27.327Z,0.60
2018-12-22T05:22:55.634Z,0.60
2018-12-22T05:25:23.933Z,0.60
2018-12-22T05:27:52.449Z,1.45
2018-12-22T05:30:20.953Z,0.95
2018-12-22T05:32:49.272Z,1.50
2018-12-22T05:35:17.674Z,0.60
2018-12-22T05:37:45.938Z,0.50
2018-12-22T05:40:14.214Z,0.80
2018-12-22T05:42:42.746Z,2.35
2018-12-22T05:45:11.074Z,0.57
2018-12-22T05:47:39.438Z,1.00
2018-12-22T05:50:07.885Z,1.73
2018-12-22T05:52:36.656Z,1.63
2018-12-22T05:55:05.785Z,0.60
2018-12-22T05:57:34.152Z,0.60
2018-12-22T06:00:02.816Z,0.93
2018-12-22T06:02:31.226Z,0.70
2018-12-22T06:04:59.601Z,1.23
2018-12-22T06:07:28.018Z,1.33
2018-12-22T06:09:56.550Z,0.75
2018-12-22T06:12:25.020Z,7.43
2018-12-22T06:14:53.313Z,3.13
2018-12-22T06:17:21.829Z,3.27
2018-12-22T06:19:50.187Z,0.93
2018-12-22T06:22:18.451Z,2.87
2018-12-22T06:24:46.952Z,1.00
2018-12-22T06:27:15.631Z,2.67
2018-12-22T06:29:44.082Z,5.43
2018-12-22T06:32:13.635Z,1.20
2018-12-22T06:34:42.342Z,6.08
2018-12-22T06:37:10.679Z,2.90
2018-12-22T06:39:39.147Z,1.17
2018-12-22T06:42:07.546Z,4.45
2018-12-22T06:44:35.965Z,7.50
2018-12-22T06:47:04.947Z,3.15
2018-12-22T06:49:33.761Z,9.25
2018-12-22T06:52:02.193Z,4.33
2018-12-22T06:54:30.851Z,6.53
2018-12-22T06:56:59.215Z,2.62
2018-12-22T06:59:27.793Z,7.55
2018-12-22T07:01:56.553Z,8.38
2018-12-22T07:04:25.881Z,6.72
2018-12-22T07:06:54.564Z,5.12
2018-12-22T07:09:23.147Z,3.40
2018-12-22T07:11:51.588Z,1.17
2018-12-22T07:14:20.542Z,5.10
2018-12-22T07:16:49.132Z,8.13
2018-12-22T07:19:19.218Z,2.60
2018-12-22T07:21:48.194Z,12.82
2018-12-22T07:24:17.673Z,6.15
2018-12-22T07:26:46.577Z,6.00
2018-12-22T07:29:15.356Z,2.27
2018-12-22T07:34:40.254Z,4.35
2018-12-22T07:37:09.118Z,9.55
2018-12-22T07:39:37.606Z,1.98
2018-12-22T07:42:06.406Z,1.72
2018-12-22T07:44:35.539Z,3.77
2018-12-22T07:47:04.003Z,13.40
2018-12-22T07:49:32.446Z,9.93
2018-12-22T07:52:00.766Z,15.98
2018-12-22T07:54:29.142Z,30.52
2018-12-22T07:56:57.559Z,17.60
2018-12-22T07:59:25.896Z,6.25
2018-12-22T08:01:54.620Z,17.35
2018-12-22T08:04:23.629Z,5.47
2018-12-22T08:06:52.993Z,5.47
2018-12-22T08:09:21.538Z,5.37
2018-12-22T08:11:50.088Z,17.40
2018-12-22T08:14:18.450Z,5.72
2018-12-22T08:16:46.878Z,9.55
2018-12-22T08:19:15.204Z,2.75
2018-12-22T08:21:43.499Z,1.70
2018-12-22T08:24:12.067Z,15.13
2018-12-22T08:26:40.565Z,2.67
2018-12-22T08:29:08.818Z,6.95
2018-12-22T08:31:37.107Z,4.50
2018-12-22T08:34:05.722Z,3.45
2018-12-22T08:36:34.158Z,12.80
2018-12-22T08:39:02.407Z,5.83
2018-12-22T08:41:30.864Z,9.08
2018-12-22T08:43:59.176Z,4.05
2018-12-22T08:46:27.618Z,6.10
2018-12-22T08:48:56.094Z,6.92
2018-12-22T08:51:24.394Z,1.90
2018-12-22T08:53:52.889Z,4.53
2018-12-22T08:56:21.855Z,6.90
2018-12-22T08:58:50.158Z,4.00
2018-12-22T09:01:18.536Z,1.32
2018-12-22T09:03:47.149Z,3.70
2018-12-22T09:06:15.454Z,10.45
2018-12-22T09:08:43.882Z,2.15
2018-12-22T09:11:12.327Z,5.42
2018-12-22T09:13:40.686Z,6.67
2018-12-22T09:16:08.930Z,6.28
2018-12-22T09:18:37.208Z,4.15
2018-12-22T09:21:05.598Z,4.00
2018-12-22T09:23:33.930Z,0.90
2018-12-22T09:26:02.274Z,4.30
2018-12-22T09:28:30.698Z,1.92
2018-12-22T09:31:00.913Z,4.37
2018-12-22T09:33:29.605Z,6.78
2018-12-22T09:35:58.041Z,5.83
2018-12-22T09:38:26.479Z,4.67
2018-12-22T09:40:55.654Z,10.08
2018-12-22T09:43:23.999Z,3.98
2018-12-22T09:45:52.320Z,6.83
2018-12-22T09:48:20.928Z,12.45
2018-12-22T09:50:49.498Z,6.78
2018-12-22T09:53:17.923Z,3.85
2018-12-22T09:55:46.891Z,6.05
2018-12-22T09:58:15.372Z,6.55
2018-12-22T10:00:43.774Z,4.10
2018-12-22T10:03:12.392Z,3.58
2018-12-22T10:05:43.963Z,2.65
2018-12-22T10:08:12.544Z,4.00
2018-12-22T10:10:41.001Z,13.20
2018-12-22T10:13:09.352Z,9.08
2018-12-22T10:15:37.718Z,9.35
2018-12-22T10:18:06.236Z,5.97
2018-12-22T10:20:34.586Z,5.20
2018-12-22T10:23:03.220Z,6.37
2018-12-22T10:25:31.721Z,12.30
2018-12-22T10:28:00.026Z,5.30
2018-12-22T10:30:28.472Z,7.60
2018-12-22T10:32:56.921Z,6.03
2018-12-22T10:35:28.495Z,8.73
2018-12-22T10:37:56.919Z,8.25
2018-12-22T10:40:25.813Z,3.20
2018-12-22T10:42:54.951Z,5.97
2018-12-22T10:45:23.441Z,11.40
2018-12-22T10:47:52.135Z,5.53
2018-12-22T10:50:20.619Z,9.93
2018-12-22T10:52:49.275Z,5.55
2018-12-22T10:55:17.602Z,4.47
2018-12-22T10:57:46.246Z,5.85
2018-12-22T11:00:16.778Z,14.40
2018-12-22T11:02:45.343Z,8.53
2018-12-22T11:05:15.469Z,2.30
2018-12-22T11:07:44.051Z,8.23
2018-12-22T11:10:18.302Z,15.30
2018-12-22T11:12:46.984Z,7.35
2018-12-22T11:15:15.382Z,12.03
2018-12-22T11:17:45.491Z,16.85
2018-12-22T11:20:13.943Z,6.35
2018-12-22T11:22:42.382Z,15.75
2018-12-22T11:25:14.800Z,15.45
2018-12-22T11:27:43.147Z,10.65
2018-12-22T11:30:15.787Z,11.73
2018-12-22T11:32:44.698Z,9.90
2018-12-22T11:35:13.457Z,12.93
2018-12-22T11:37:46.155Z,8.25
2018-12-22T11:40:14.571Z,5.25
2018-12-22T11:42:47.532Z,9.13
2018-12-22T11:45:13.856Z,4.90
2018-12-22T11:47:47.350Z,21.30
2018-12-22T11:50:20.109Z,6.92
2018-12-22T11:52:48.602Z,5.67
2018-12-22T11:55:16.976Z,4.47
2018-12-22T11:57:46.127Z,2.17
2018-12-22T12:00:15.826Z,6.87
2018-12-22T12:02:44.377Z,14.45
2018-12-22T12:05:13.640Z,5.97
2018-12-22T12:07:42.403Z,3.10
2018-12-22T12:10:13.322Z,2.20
2018-12-22T12:12:42.089Z,5.40
2018-12-22T12:15:16.839Z,3.08
2018-12-22T12:18:23.923Z,2.10
2018-12-22T12:20:52.374Z,7.97
2018-12-22T12:23:20.978Z,5.40
2018-12-22T12:25:49.624Z,1.72
2018-12-22T12:28:17.998Z,6.67
2018-12-22T12:30:46.262Z,6.05
2018-12-22T12:33:14.549Z,4.85
2018-12-22T12:35:42.959Z,3.90
2018-12-22T12:38:11.202Z,4.62
2018-12-22T12:40:39.594Z,8.05
2018-12-22T12:45:12.767Z,8.38
2018-12-22T12:47:41.475Z,4.20
2018-12-22T12:50:12.043Z,3.02
2018-12-22T12:52:41.354Z,1.47
2018-12-22T12:55:10.877Z,5.87
2018-12-22T12:57:39.280Z,14.10
2018-12-22T13:00:10.470Z,5.95
2018-12-22T13:02:38.720Z,5.10
2018-12-22T13:05:08.354Z,6.55
2018-12-22T13:07:36.823Z,9.88
2018-12-22T13:10:06.716Z,15.08
2018-12-22T13:12:41.688Z,8.40
2018-12-22T13:15:10.746Z,7.72
2018-12-22T13:17:39.470Z,8.13
2018-12-22T13:20:09.161Z,10.48
2018-12-22T13:22:37.463Z,13.03
2018-12-22T13:25:06.102Z,7.60
2018-12-22T13:27:34.587Z,8.55
2018-12-22T13:30:02.892Z,14.23
2018-12-22T13:32:31.184Z,5.15
2018-12-22T13:34:59.568Z,8.50
2018-12-22T13:37:27.995Z,21.65
2018-12-22T13:39:56.302Z,17.60
2018-12-22T13:42:24.719Z,17.77
2018-12-22T13:44:53.079Z,8.53
2018-12-22T13:47:21.535Z,8.03
2018-12-22T13:49:50.192Z,9.68
2018-12-22T13:52:19.239Z,13.78
2018-12-22T13:54:48.689Z,12.20
2018-12-22T13:57:17.235Z,10.48
2018-12-22T13:59:46.207Z,10.63
2018-12-22T14:02:18.292Z,11.05
2018-12-22T14:04:46.134Z,9.18
2018-12-22T14:07:14.442Z,4.22
2018-12-22T14:09:42.792Z,6.35
2018-12-22T14:12:11.088Z,6.20
2018-12-22T14:14:40.833Z,8.43
2018-12-22T14:17:18.328Z,8.03
2018-12-22T14:19:57.581Z,11.43
2018-12-22T14:22:26.497Z,5.25
2018-12-22T14:24:55.845Z,6.08
2018-12-22T14:27:27.004Z,10.80
2018-12-22T14:29:55.445Z,6.62
2018-12-22T14:32:26.988Z,4.30
2018-12-22T14:35:00.922Z,6.47
2018-12-22T14:37:29.283Z,5.17
2018-12-22T14:39:58.117Z,5.50
2018-12-22T14:42:27.069Z,3.15
2018-12-22T14:44:55.591Z,3.98
2018-12-22T14:47:23.861Z,5.47
2018-12-22T14:49:52.606Z,5.08
2018-12-22T14:52:20.959Z,5.95
2018-12-22T14:54:49.328Z,1.85
2018-12-22T14:57:17.756Z,5.15
2018-12-22T14:59:47.279Z,8.60
2018-12-22T15:02:15.603Z,4.15
2018-12-22T15:04:43.994Z,6.05
2018-12-22T15:07:12.553Z,7.15
2018-12-22T15:09:40.960Z,3.45
2018-12-22T15:12:09.417Z,4.72
2018-12-22T15:14:37.694Z,5.25
2018-12-22T15:17:06.421Z,10.58
2018-12-22T15:19:37.427Z,5.95
2018-12-22T15:22:06.665Z,4.53
2018-12-22T15:24:35.162Z,4.97
2018-12-22T15:27:03.612Z,2.33
2018-12-22T15:29:32.130Z,4.25
2018-12-22T15:32:00.752Z,4.05
2018-12-22T15:34:29.015Z,3.95
2018-12-22T15:36:57.466Z,10.30
2018-12-22T15:39:25.794Z,3.95
2018-12-22T15:41:54.093Z,5.03
2018-12-22T15:44:22.529Z,9.68
2018-12-22T15:46:50.941Z,27.45
2018-12-22T15:49:21.909Z,10.00
2018-12-22T15:51:50.450Z,18.10
2018-12-22T15:54:18.916Z,14.10
2018-12-22T15:56:47.429Z,12.03
2018-12-22T15:59:17.103Z,20.12
2018-12-22T16:01:45.590Z,31.90
2018-12-22T16:04:14.066Z,24.77
2018-12-22T16:06:44.037Z,22.77
2018-12-22T16:09:12.435Z,22.48
2018-12-22T16:11:40.763Z,25.27
2018-12-22T16:14:09.074Z,20.95
2018-12-22T16:16:37.371Z,18.95
2018-12-22T16:19:06.048Z,25.68
2018-12-22T16:21:34.362Z,17.30
2018-12-22T16:24:03.095Z,15.78
2018-12-22T16:26:33.206Z,14.40
2018-12-22T16:29:15.539Z,7.83
2018-12-22T16:31:43.869Z,12.28
2018-12-22T16:34:13.045Z,14.00
2018-12-22T16:36:41.622Z,5.40
2018-12-22T16:39:10.336Z,11.08
2018-12-22T16:41:38.691Z,10.50
2018-12-22T16:44:10.595Z,9.53
2018-12-22T16:46:39.106Z,8.18
2018-12-22T16:49:07.387Z,6.83
2018-12-22T16:51:35.961Z,5.28
2018-12-22T16:54:04.403Z,11.30
2018-12-22T16:56:32.729Z,3.35
2018-12-22T16:59:01.773Z,9.33
2018-12-22T17:01:42.450Z,6.22
2018-12-22T17:04:10.897Z,5.47
2018-12-22T17:06:40.496Z,8.28
2018-12-22T17:09:11.038Z,7.70
2018-12-22T17:11:39.856Z,4.85
2018-12-22T17:14:08.334Z,6.78
2018-12-22T17:16:37.332Z,7.90
2018-12-22T17:19:05.713Z,11.38
2018-12-22T17:21:56.046Z,17.02
2018-12-22T17:24:31.499Z,10.88
2018-12-22T17:26:59.982Z,18.37
2018-12-22T17:29:28.520Z,9.90
2018-12-22T17:31:56.979Z,7.95
2018-12-22T17:34:25.377Z,7.10
2018-12-22T17:36:53.794Z,9.68
2018-12-22T17:39:22.084Z,11.85
2018-12-22T17:41:51.021Z,10.30
2018-12-22T17:44:19.350Z,26.80
2018-12-22T17:46:47.607Z,15.85
2018-12-22T17:49:16.024Z,22.20
2018-12-22T17:51:44.272Z,22.30
2018-12-22T17:54:12.569Z,13.85
2018-12-22T17:56:40.977Z,14.63
2018-12-22T17:59:09.422Z,17.87
2018-12-22T18:01:37.683Z,19.12
2018-12-22T18:04:05.992Z,14.45
2018-12-22T18:06:34.395Z,29.40
2018-12-22T18:09:03.783Z,27.60
2018-12-22T18:11:32.300Z,19.48
2018-12-22T18:14:00.758Z,20.75
2018-12-22T18:16:29.216Z,19.50
2018-12-22T18:18:57.801Z,30.80
2018-12-22T18:21:26.198Z,20.80
2018-12-22T18:23:54.884Z,24.77
2018-12-22T18:26:25.147Z,21.37
2018-12-22T18:28:54.059Z,19.10
2018-12-22T18:31:22.657Z,26.45
2018-12-22T18:33:51.112Z,37.35
2018-12-22T18:36:19.539Z,32.90
2018-12-22T18:38:47.902Z,31.73
2018-12-22T18:41:16.266Z,21.42
2018-12-22T18:43:44.614Z,24.05
2018-12-22T18:46:12.961Z,43.35
2018-12-22T18:48:41.294Z,22.75
2018-12-22T18:51:09.735Z,22.35
2018-12-22T18:53:38.573Z,21.07
2018-12-22T18:56:06.908Z,23.05
2018-12-22T18:58:35.758Z,25.72
2018-12-22T19:01:04.150Z,14.73
2018-12-22T19:03:32.636Z,14.65
2018-12-22T19:06:01.012Z,24.20
2018-12-22T19:08:29.999Z,18.12
2018-12-22T19:11:02.445Z,58.13
2018-12-22T19:13:30.970Z,26.10
2018-12-22T19:15:59.363Z,18.37
2018-12-22T19:18:27.758Z,17.85
2018-12-22T19:20:56.050Z,14.98
2018-12-22T19:23:25.981Z,31.30
2018-12-22T19:25:54.670Z,26.40
2018-12-22T19:28:23.017Z,24.12
2018-12-22T19:30:51.680Z,24.72
2018-12-22T19:33:19.967Z,27.10
2018-12-22T19:35:48.383Z,17.75
2018-12-22T19:38:17.259Z,25.27
2018-12-22T19:40:46.067Z,18.77
2018-12-22T19:43:14.581Z,28.90
2018-12-22T19:45:43.008Z,27.27
2018-12-22T19:48:11.895Z,17.27
2018-12-22T19:50:40.332Z,16.25
2018-12-22T19:53:08.800Z,27.27
2018-12-22T19:55:37.148Z,20.82
2018-12-22T19:58:05.979Z,16.05
2018-12-22T20:00:34.281Z,25.40
2018-12-22T20:03:02.896Z,21.12
2018-12-22T20:05:31.347Z,12.75
2018-12-22T20:07:59.773Z,20.60
2018-12-22T20:10:28.163Z,19.67
2018-12-22T20:12:56.757Z,23.75
2018-12-22T20:15:25.411Z,22.13
2018-12-22T20:17:53.741Z,25.65
2018-12-22T20:20:22.124Z,24.23
2018-12-22T20:22:50.470Z,11.22
2018-12-22T20:25:18.985Z,19.80
2018-12-22T20:27:47.469Z,18.98
2018-12-22T20:30:15.876Z,15.35
2018-12-22T20:32:44.453Z,24.55
2018-12-22T20:35:12.779Z,14.00
2018-12-22T20:37:41.065Z,24.32
2018-12-22T20:40:09.514Z,28.32
2018-12-22T20:42:37.859Z,33.92
2018-12-22T20:45:06.590Z,18.90
2018-12-22T20:47:35.054Z,12.45
2018-12-22T20:50:03.433Z,14.33
2018-12-22T20:52:31.802Z,12.28
2018-12-22T20:55:00.194Z,8.88
2018-12-22T20:57:28.493Z,8.00
2018-12-22T20:59:57.192Z,8.43
2018-12-22T21:02:25.555Z,8.98
2018-12-22T21:04:54.083Z,13.32
2018-12-22T21:07:22.579Z,8.98
2018-12-22T21:09:52.144Z,9.10
2018-12-22T21:12:20.860Z,8.98
2018-12-22T21:14:49.179Z,10.00
2018-12-22T21:17:17.493Z,22.27
2018-12-22T21:19:45.806Z,7.20
2018-12-22T21:22:14.222Z,7.65
2018-12-22T21:24:42.643Z,11.75
2018-12-22T21:27:11.105Z,3.27
2018-12-22T21:29:39.484Z,11.25
2018-12-22T21:32:07.833Z,64.85
2018-12-22T21:34:36.150Z,11.65
2018-12-22T21:37:04.477Z,8.98
2018-12-22T21:39:32.912Z,24.27
2018-12-22T21:42:01.164Z,16.55
2018-12-22T21:44:29.610Z,10.28
2018-12-22T21:46:57.974Z,6.03
2018-12-22T21:49:26.414Z,8.68
2018-12-22T21:51:55.360Z,12.45
2018-12-22T21:54:23.820Z,7.17
2018-12-22T21:56:52.529Z,36.48
2018-12-22T21:59:20.804Z,21.02
2018-12-22T22:01:49.103Z,16.70
2018-12-22T22:04:17.495Z,9.30
2018-12-22T22:06:45.884Z,10.80
2018-12-22T22:09:14.533Z,14.78
2018-12-22T22:11:43.608Z,13.15
2018-12-22T22:14:12.260Z,13.30
2018-12-22T22:16:40.678Z,23.30
2018-12-22T22:19:09.002Z,15.90
2018-12-22T22:21:37.984Z,8.60
2018-12-22T22:24:06.335Z,7.90
2018-12-22T22:26:35.547Z,17.37
2018-12-22T22:29:04.046Z,15.98
2018-12-22T22:31:32.442Z,18.85
2018-12-22T22:34:00.766Z,15.95
2018-12-22T22:36:29.226Z,23.27
2018-12-22T22:38:57.643Z,11.88
2018-12-22T22:41:26.058Z,12.65
2018-12-22T22:43:54.353Z,7.35
2018-12-22T22:46:22.661Z,10.35
2018-12-22T22:48:51.261Z,10.05
2018-12-22T22:51:19.537Z,18.32
2018-12-22T22:53:47.891Z,17.15
2018-12-22T22:56:16.166Z,19.25
2018-12-22T22:58:44.599Z,10.60
2018-12-22T23:01:13.354Z,8.43
2018-12-22T23:03:41.733Z,8.33
2018-12-22T23:06:10.156Z,6.30
2018-12-22T23:08:38.595Z,11.12
2018-12-22T23:11:06.990Z,12.90
2018-12-22T23:13:35.351Z,13.38
2018-12-22T23:16:03.702Z,9.40
2018-12-22T23:18:32.001Z,6.95
2018-12-22T23:21:00.437Z,16.65
2018-12-22T23:23:28.786Z,14.35
2018-12-22T23:25:57.123Z,14.18
2018-12-22T23:28:25.497Z,16.82
2018-12-22T23:30:53.789Z,17.20
2018-12-22T23:33:22.203Z,22.75
2018-12-22T23:35:57.163Z,9.60
2018-12-22T23:38:25.556Z,15.03
2018-12-22T23:40:54.027Z,22.93
2018-12-22T23:43:22.469Z,13.45
2018-12-22T23:45:51.050Z,11.63
2018-12-22T23:48:19.347Z,13.53
2018-12-22T23:50:47.946Z,15.63
2018-12-22T23:53:16.485Z,14.28
2018-12-22T23:55:45.230Z,15.45
2018-12-22T23:58:14.144Z,19.77
